Time;durP1;ratioP1;P1;durP2;ratioP2;P2;SDS_P1;SDS_P2;PMS_P1;PMS_P2;Temp;Humidity;BMP_temperature;BMP_pressure;BME280_temperature;BME280_humidity;BME280_pressure;Samples;Min_cycle;Max_cycle;Signal;HPM_P1;HPM_P2
2023/12/18 00:02:52;;;;;;;8.63;5.65;;;;;;;5.77;98.15;102016.63;10437923;28;20053;-79
2023/12/18 00:07:55;;;;;;;14.73;7.05;;;;;;;5.74;97.76;102014.09;10441257;28;20057;-81
2023/12/18 00:12:59;;;;;;;11.50;7.25;;;;;;;5.60;97.58;102017.22;10426666;28;21714;-79
2023/12/18 00:18:02;;;;;;;17.10;7.25;;;;;;;5.71;95.56;102028.38;10443535;28;20049;-79
2023/12/18 00:23:05;;;;;;;11.93;5.03;;;;;;;5.42;96.28;102017.84;10434314;28;20059;-81
2023/12/18 00:28:10;;;;;;;12.77;4.65;;;;;;;5.47;95.36;102005.22;10438807;28;20055;-80
2023/12/18 00:33:13;;;;;;;14.45;7.47;;;;;;;5.22;96.79;102015.84;10421645;28;20279;-79
2023/12/18 00:38:16;;;;;;;16.90;7.10;;;;;;;5.53;92.59;102025.47;10427333;28;20041;-81
2023/12/18 00:43:20;;;;;;;15.32;7.85;;;;;;;5.44;93.54;102032.88;10439023;28;20047;-79
2023/12/18 00:48:23;;;;;;;11.18;6.43;;;;;;;5.40;92.70;102039.22;10452155;28;20228;-80
2023/12/18 00:53:27;;;;;;;11.18;5.47;;;;;;;5.35;92.22;102034.94;10447438;28;20060;-80
2023/12/18 00:58:31;;;;;;;17.75;7.60;;;;;;;5.58;91.03;102024.41;10429017;28;20431;-81
2023/12/18 01:03:34;;;;;;;16.52;8.93;;;;;;;5.33;92.46;102003.03;10416521;28;20048;-82
2023/12/18 01:08:37;;;;;;;19.30;8.25;;;;;;;5.37;91.75;102007.31;10406649;28;20094;-80
2023/12/18 01:13:42;;;;;;;16.65;8.50;;;;;;;5.24;92.68;102004.22;10439577;28;21166;-80
2023/12/18 01:18:45;;;;;;;20.05;9.77;;;;;;;5.23;91.52;102013.13;10419457;28;20048;-81
2023/12/18 01:23:49;;;;;;;15.95;9.63;;;;;;;5.45;90.64;102025.72;10424112;28;20144;-79
2023/12/18 01:28:53;;;;;;;20.08;11.48;;;;;;;5.28;90.43;102037.81;10433759;28;20058;-80
2023/12/18 01:33:56;;;;;;;17.30;9.63;;;;;;;4.91;91.38;102046.09;10416189;28;20052;-81
2023/12/18 01:38:59;;;;;;;21.80;11.63;;;;;;;5.28;89.50;102051.16;10446627;28;20044;-80
2023/12/18 01:44:04;;;;;;;20.23;10.43;;;;;;;5.23;89.72;102038.91;10431760;28;20162;-80
2023/12/18 01:49:09;;;;;;;23.58;12.88;;;;;;;5.63;87.64;102035.78;10481265;28;20048;-82
2023/12/18 01:54:13;;;;;;;26.88;13.23;;;;;;;5.48;88.32;102044.28;10444183;28;20168;-80
2023/12/18 01:59:19;;;;;;;26.63;13.70;;;;;;;5.60;86.92;102045.69;10436309;28;20052;-80
2023/12/18 02:04:23;;;;;;;23.02;13.32;;;;;;;5.38;88.42;102048.19;10418032;28;20392;-79
2023/12/18 02:09:26;;;;;;;23.80;12.63;;;;;;;5.17;89.67;102047.09;10406631;28;20056;-79
2023/12/18 02:14:31;;;;;;;22.20;11.15;;;;;;;5.05;88.46;102040.38;10451666;28;20044;-78
2023/12/18 02:19:34;;;;;;;20.55;10.35;;;;;;;5.15;88.38;102022.28;10484220;28;20126;-80
2023/12/18 02:24:38;;;;;;;23.08;13.95;;;;;;;5.00;89.55;102037.84;10426849;28;20324;-77
2023/12/18 02:29:42;;;;;;;26.80;13.68;;;;;;;5.05;89.33;102030.59;10385446;28;20056;-81
2023/12/18 02:34:45;;;;;;;26.35;12.93;;;;;;;4.86;89.51;102032.03;10416393;28;20052;-80
2023/12/18 02:39:49;;;;;;;31.95;14.90;;;;;;;4.97;90.44;102029.91;10421242;28;20086;-80
2023/12/18 02:44:53;;;;;;;29.70;15.60;;;;;;;4.75;89.84;102027.06;10434447;28;20049;-80
2023/12/18 02:49:56;;;;;;;27.52;14.82;;;;;;;4.69;88.94;102029.91;10446116;28;20071;-81
2023/12/18 02:55:00;;;;;;;28.92;13.30;;;;;;;4.76;88.48;102036.78;10442775;28;20529;-76
2023/12/18 03:00:04;;;;;;;20.70;10.80;;;;;;;4.40;90.54;102026.31;10435824;28;20052;-83
2023/12/18 03:05:08;;;;;;;26.48;13.55;;;;;;;4.40;90.32;102018.31;10421137;28;20048;-81
2023/12/18 03:10:13;;;;;;;22.02;11.02;;;;;;;4.52;89.44;102011.75;10422287;28;20056;-78
2023/12/18 03:15:16;;;;;;;27.77;13.15;;;;;;;4.35;88.61;102016.72;10438380;28;20386;-80
2023/12/18 03:20:19;;;;;;;23.60;13.00;;;;;;;4.46;87.26;102003.09;10456692;28;20053;-81
2023/12/18 03:25:23;;;;;;;20.08;10.30;;;;;;;4.31;89.41;102007.09;10451264;28;20040;-80
2023/12/18 03:30:26;;;;;;;17.63;8.15;;;;;;;4.05;91.92;101998.03;10438358;28;20053;-79
2023/12/18 03:35:29;;;;;;;20.70;10.90;;;;;;;4.11;90.61;101991.69;10427515;28;20058;-80
2023/12/18 03:40:33;;;;;;;14.13;9.25;;;;;;;4.22;89.78;101981.59;10428087;28;20048;-80
2023/12/18 03:45:36;;;;;;;25.45;13.65;;;;;;;4.55;88.69;101978.84;10439578;28;20482;-81
2023/12/18 03:50:39;;;;;;;29.45;13.75;;;;;;;4.55;89.04;101971.75;10422721;28;20543;-80
2023/12/18 03:55:44;;;;;;;26.13;14.13;;;;;;;4.43;89.69;101974.78;10425403;28;20559;-79
2023/12/18 04:00:46;;;;;;;17.98;10.25;;;;;;;3.91;93.48;101990.44;10454712;28;20439;-82
2023/12/18 04:05:49;;;;;;;25.92;13.75;;;;;;;4.63;89.56;101979.50;10437995;28;20056;-81
2023/12/18 04:10:54;;;;;;;15.98;7.88;;;;;;;4.38;91.71;101987.34;10446070;28;20056;-81
2023/12/18 04:15:57;;;;;;;29.58;13.27;;;;;;;4.52;91.10;101976.28;10432677;28;20420;-81
2023/12/18 04:21:03;;;;;;;25.20;14.00;;;;;;;4.51;91.52;101988.72;10451686;28;20060;-81
2023/12/18 04:26:09;;;;;;;24.50;10.38;;;;;;;4.39;90.71;101960.72;10449509;28;20527;-80
2023/12/18 04:31:12;;;;;;;34.38;13.65;;;;;;;4.21;92.56;101955.06;10433914;28;20055;-80
2023/12/18 04:36:15;;;;;;;27.88;14.48;;;;;;;4.86;89.59;101976.13;10415429;28;20059;-81
2023/12/18 04:41:21;;;;;;;29.85;14.52;;;;;;;4.36;92.70;101974.09;10403065;28;20074;-81
2023/12/18 04:46:24;;;;;;;24.10;12.98;;;;;;;4.54;91.96;101991.28;10416857;28;20041;-81
2023/12/18 04:51:27;;;;;;;30.05;14.07;;;;;;;4.47;92.77;101978.22;10433475;28;20133;-81
2023/12/18 04:56:31;;;;;;;32.08;14.75;;;;;;;4.52;93.12;101984.28;10419358;28;20522;-80
2023/12/18 05:01:34;;;;;;;30.75;14.13;;;;;;;4.40;94.25;101973.09;10434364;28;20638;-79
2023/12/18 05:06:39;;;;;;;28.02;13.85;;;;;;;4.21;95.56;101979.00;10419113;28;20556;-81
2023/12/18 05:11:44;;;;;;;31.38;15.05;;;;;;;4.53;94.95;101980.72;10423891;28;20037;-81
2023/12/18 05:16:47;;;;;;;29.30;14.25;;;;;;;4.31;96.65;101968.03;10436249;28;20048;-80
2023/12/18 05:21:50;;;;;;;32.05;15.30;;;;;;;4.49;95.89;101974.59;10422243;28;20092;-82
2023/12/18 05:26:54;;;;;;;27.83;12.85;;;;;;;4.51;94.95;101969.22;10422460;28;20546;-80
2023/12/18 05:31:57;;;;;;;22.48;10.90;;;;;;;4.21;96.84;101986.97;10422471;28;20051;-80
2023/12/18 05:37:02;;;;;;;25.85;11.07;;;;;;;4.16;97.51;101957.84;10449549;28;20052;-80
2023/12/18 05:42:06;;;;;;;28.38;15.52;;;;;;;4.61;94.99;101942.28;10449627;28;20047;-80
2023/12/18 05:47:11;;;;;;;31.42;14.98;;;;;;;4.27;98.14;101949.53;10433765;28;20117;-81
2023/12/18 05:52:14;;;;;;;32.30;17.13;;;;;;;4.42;97.48;101957.09;10424126;28;20053;-81
2023/12/18 05:57:20;;;;;;;30.65;15.95;;;;;;;4.42;96.55;101943.78;10413265;28;20063;-81
2023/12/18 06:02:23;;;;;;;36.63;18.95;;;;;;;4.51;97.10;101955.94;10438228;28;20527;-80
2023/12/18 06:07:26;;;;;;;34.78;18.23;;;;;;;4.58;96.13;101950.38;10444187;28;20040;-79
2023/12/18 06:12:30;;;;;;;29.52;14.25;;;;;;;4.24;98.35;101974.44;10476486;28;20040;-78
2023/12/18 06:17:33;;;;;;;42.70;20.95;;;;;;;4.53;98.28;101970.06;10444197;28;20086;-81
2023/12/18 06:22:36;;;;;;;32.67;17.45;;;;;;;4.33;98.82;101981.28;10449059;28;20053;-78
2023/12/18 06:27:43;;;;;;;40.28;18.55;;;;;;;4.50;98.14;101971.03;10451073;28;20048;-80
2023/12/18 06:32:46;;;;;;;41.75;19.15;;;;;;;4.26;99.58;101987.72;10429328;28;20570;-78
2023/12/18 06:37:50;;;;;;;34.70;18.02;;;;;;;4.55;97.93;101984.19;10444236;28;20125;-82
2023/12/18 06:42:54;;;;;;;37.58;20.98;;;;;;;4.45;99.20;101980.06;10425108;28;20685;-78
2023/12/18 06:47:57;;;;;;;29.38;15.75;;;;;;;4.14;100.00;101983.59;10441799;28;20061;-80
2023/12/18 06:53:00;;;;;;;34.97;17.75;;;;;;;4.27;100.00;101977.00;10430628;28;20143;-81
2023/12/18 06:58:05;;;;;;;32.05;15.32;;;;;;;4.18;100.00;101975.50;10411550;28;20060;-79
2023/12/18 07:03:08;;;;;;;38.08;18.98;;;;;;;4.47;99.50;101962.25;10441603;28;20049;-81
2023/12/18 07:08:11;;;;;;;34.28;17.52;;;;;;;4.03;100.00;101959.09;10454595;28;20060;-79
2023/12/18 07:13:15;;;;;;;29.17;13.80;;;;;;;4.20;100.00;101950.63;10432819;28;20049;-81
2023/12/18 07:18:18;;;;;;;39.97;16.63;;;;;;;4.04;100.00;101976.84;10439086;28;20449;-79
2023/12/18 07:23:22;;;;;;;38.13;19.75;;;;;;;4.39;100.00;101984.66;10431903;28;20526;-81
2023/12/18 07:28:26;;;;;;;36.97;20.42;;;;;;;4.26;100.00;101993.03;10417803;28;21292;-81
2023/12/18 07:33:29;;;;;;;33.92;16.20;;;;;;;4.23;100.00;101998.47;10441017;28;20060;-79
2023/12/18 07:38:33;;;;;;;35.47;15.93;;;;;;;4.43;99.13;102008.50;10441093;28;20045;-82
2023/12/18 07:43:37;;;;;;;44.40;18.63;;;;;;;4.04;100.00;102004.28;10448586;28;20040;-80
2023/12/18 07:48:40;;;;;;;43.45;20.98;;;;;;;4.29;100.00;102016.91;10443578;28;21132;-82
2023/12/18 07:53:44;;;;;;;32.70;16.63;;;;;;;3.81;100.00;102012.00;10425678;28;20745;-79
2023/12/18 07:58:48;;;;;;;42.50;17.75;;;;;;;4.29;100.00;102004.47;10442207;28;20057;-80
2023/12/18 08:03:51;;;;;;;45.15;21.30;;;;;;;4.42;100.00;102009.44;10460958;28;20140;-80
2023/12/18 08:08:54;;;;;;;43.90;18.67;;;;;;;4.22;100.00;102013.53;10446965;28;20112;-80
2023/12/18 08:13:59;;;;;;;44.50;19.20;;;;;;;4.34;100.00;102012.31;10456293;28;20091;-80
2023/12/18 08:19:02;;;;;;;41.58;19.33;;;;;;;4.37;100.00;102006.91;10440963;28;20052;-81
2023/12/18 08:24:05;;;;;;;39.50;19.70;;;;;;;4.69;100.00;102000.63;10431569;28;20095;-78
2023/12/18 08:29:10;;;;;;;43.00;20.00;;;;;;;4.49;100.00;102003.84;10439490;28;20068;-81
2023/12/18 08:34:13;;;;;;;41.42;21.63;;;;;;;4.68;100.00;102004.19;10413447;28;20041;-76
2023/12/18 08:39:16;;;;;;;42.35;20.73;;;;;;;4.48;100.00;101999.47;10416241;28;20635;-79
2023/12/18 08:44:21;;;;;;;36.08;18.05;;;;;;;4.30;100.00;101998.22;10422528;28;20052;-80
2023/12/18 08:49:24;;;;;;;41.50;21.60;;;;;;;4.50;100.00;101984.34;10443792;28;20049;-80
2023/12/18 08:54:27;;;;;;;44.22;22.08;;;;;;;4.62;100.00;101975.97;10431689;28;20090;-79
2023/12/18 08:59:32;;;;;;;43.00;20.98;;;;;;;4.65;100.00;101969.66;10403966;28;20049;-80
2023/12/18 09:04:35;;;;;;;43.65;20.63;;;;;;;4.76;100.00;101974.66;10421871;28;20574;-77
2023/12/18 09:09:39;;;;;;;48.05;20.48;;;;;;;4.80;99.16;101970.97;10445729;28;20155;-81
2023/12/18 09:14:44;;;;;;;43.85;19.23;;;;;;;4.40;100.00;101962.44;10454434;28;20045;-81
2023/12/18 09:19:47;;;;;;;42.25;19.42;;;;;;;4.41;100.00;101963.31;10429807;28;20033;-80
2023/12/18 09:24:50;;;;;;;46.03;18.88;;;;;;;4.29;100.00;101964.56;10430015;28;20139;-80
2023/12/18 09:29:54;;;;;;;46.63;20.23;;;;;;;4.50;98.90;101952.41;10418852;28;20133;-79
2023/12/18 09:34:57;;;;;;;38.30;18.67;;;;;;;4.14;100.00;101954.34;10429390;28;20049;-78
2023/12/18 09:40:01;;;;;;;48.10;20.45;;;;;;;4.34;100.00;101948.47;10443829;28;20056;-79
2023/12/18 09:45:08;;;;;;;30.83;14.73;;;;;;;4.17;100.00;101947.16;10451316;28;20045;-79
2023/12/18 09:50:11;;;;;;;42.28;17.88;;;;;;;4.11;100.00;101951.78;10433324;28;20044;-79
2023/12/18 09:55:14;;;;;;;24.77;13.43;;;;;;;4.29;100.00;101937.94;10425136;28;20578;-79
2023/12/18 10:00:21;;;;;;;32.38;15.30;;;;;;;4.53;99.70;101941.66;10426670;28;20701;-79
2023/12/18 10:05:25;;;;;;;31.70;16.75;;;;;;;4.44;100.00;101938.38;10406121;28;20056;-81
2023/12/18 10:10:28;;;;;;;39.03;18.85;;;;;;;4.70;98.67;101938.47;10435568;28;20140;-80
2023/12/18 10:15:34;;;;;;;39.40;19.58;;;;;;;4.72;98.35;101933.97;10424015;28;20056;-80
2023/12/18 10:20:37;;;;;;;39.80;18.40;;;;;;;4.85;97.20;101923.75;10424168;28;20120;-80
2023/12/18 10:25:40;;;;;;;30.65;14.90;;;;;;;4.61;97.68;101923.66;10428843;28;20052;-79
2023/12/18 10:30:44;;;;;;;36.08;18.42;;;;;;;4.65;98.40;101924.41;10397079;28;20052;-81
2023/12/18 10:35:49;;;;;;;34.45;18.55;;;;;;;4.62;98.87;101904.09;10410621;28;20084;-80
2023/12/18 10:40:56;;;;;;;31.58;15.45;;;;;;;4.31;100.00;101904.19;10452154;28;20057;-79
2023/12/18 10:46:02;;;;;;;38.35;18.38;;;;;;;4.71;98.77;101912.69;10410460;28;20102;-80
2023/12/18 10:51:07;;;;;;;38.47;16.98;;;;;;;4.36;100.00;101906.69;10433060;28;20052;-81
2023/12/18 10:56:16;;;;;;;30.70;16.17;;;;;;;4.31;100.00;101904.19;10427265;28;20613;-78
2023/12/18 11:01:21;;;;;;;33.97;17.83;;;;;;;4.23;100.00;101895.56;10417301;28;20056;-79
2023/12/18 11:06:24;;;;;;;33.90;17.88;;;;;;;4.34;100.00;101881.94;10428828;28;20037;-81
2023/12/18 11:11:28;;;;;;;33.70;16.95;;;;;;;4.13;100.00;101888.78;10433694;28;21007;-80
2023/12/18 11:16:42;;;;;;;36.97;19.77;;;;;;;4.51;100.00;101887.59;10421513;28;20045;-81
2023/12/18 11:21:48;;;;;;;38.15;17.45;;;;;;;4.47;100.00;101887.72;10420797;28;20059;-81
2023/12/18 11:26:53;;;;;;;38.25;19.00;;;;;;;4.58;100.00;101888.25;10432674;28;20056;-81
2023/12/18 11:31:58;;;;;;;39.22;18.85;;;;;;;4.74;99.46;101883.31;10422160;28;20473;-80
2023/12/18 11:37:02;;;;;;;37.47;18.58;;;;;;;4.68;100.00;101876.41;10424906;28;20049;-80
2023/12/18 11:42:06;;;;;;;43.92;20.17;;;;;;;4.55;100.00;101865.31;10448023;28;20052;-80
2023/12/18 11:47:11;;;;;;;40.05;18.65;;;;;;;4.61;100.00;101849.13;10424165;28;20118;-78
2023/12/18 11:52:18;;;;;;;41.75;19.23;;;;;;;4.87;99.29;101849.16;10423748;28;20079;-80
2023/12/18 11:57:21;;;;;;;37.45;20.67;;;;;;;4.66;100.00;101837.44;10440931;28;20085;-79
2023/12/18 12:02:27;;;;;;;45.58;20.77;;;;;;;4.82;99.70;101839.53;10423644;28;20044;-81
2023/12/18 12:07:30;;;;;;;46.85;21.45;;;;;;;4.90;100.00;101830.41;10429000;28;20404;-80
2023/12/18 12:12:33;;;;;;;42.05;20.13;;;;;;;5.17;98.27;101812.63;10425802;28;20049;-81
2023/12/18 12:17:38;;;;;;;39.47;20.15;;;;;;;5.26;97.62;101821.16;10453243;28;20054;-78
2023/12/18 12:22:41;;;;;;;40.53;18.42;;;;;;;5.08;98.45;101800.53;10443915;28;20059;-79
2023/12/18 12:27:44;;;;;;;41.67;19.67;;;;;;;5.32;98.09;101793.44;10439068;28;20507;-79
2023/12/18 12:32:49;;;;;;;40.30;20.98;;;;;;;5.65;96.26;101779.75;10440661;28;20534;-80
2023/12/18 12:37:52;;;;;;;42.45;21.17;;;;;;;5.63;96.06;101762.97;10428002;28;20060;-79
2023/12/18 12:42:55;;;;;;;40.38;19.40;;;;;;;5.62;96.40;101764.78;10426352;28;20055;-79
2023/12/18 12:48:00;;;;;;;32.97;17.48;;;;;;;5.32;96.89;101781.91;10414933;28;20064;-81
2023/12/18 12:53:04;;;;;;;42.60;21.45;;;;;;;5.36;99.05;101772.88;10439187;28;20459;-80
2023/12/18 12:58:08;;;;;;;35.92;17.85;;;;;;;5.44;98.05;101781.47;10437619;28;20411;-79
2023/12/18 13:03:14;;;;;;;37.63;20.92;;;;;;;5.67;96.38;101776.09;10417514;28;20056;-81
2023/12/18 13:08:18;;;;;;;42.90;20.80;;;;;;;5.65;96.06;101772.66;10421326;28;20045;-80
2023/12/18 13:13:21;;;;;;;36.92;17.17;;;;;;;5.59;97.13;101775.53;10436789;28;20060;-79
2023/12/18 13:18:26;;;;;;;36.55;20.40;;;;;;;5.47;99.58;101760.88;10400951;28;20485;-80
2023/12/18 13:23:29;;;;;;;41.58;20.45;;;;;;;5.79;95.97;101756.13;10439054;28;20558;-79
2023/12/18 13:28:32;;;;;;;37.58;20.45;;;;;;;5.33;98.27;101749.00;10416301;28;20132;-81
2023/12/18 13:33:36;;;;;;;36.85;19.38;;;;;;;5.73;95.30;101741.22;10392398;28;20049;-80
2023/12/18 13:38:40;;;;;;;34.85;18.08;;;;;;;5.22;98.94;101736.09;10425018;28;20045;-79
2023/12/18 13:43:42;;;;;;;44.90;20.83;;;;;;;5.41;97.52;101726.47;10431821;28;20041;-80
2023/12/18 13:48:47;;;;;;;35.60;16.92;;;;;;;5.06;99.13;101746.44;10421353;28;21171;-80
2023/12/18 13:53:50;;;;;;;39.70;18.63;;;;;;;5.66;96.13;101717.53;10424174;28;20090;-79
2023/12/18 13:58:54;;;;;;;36.60;19.80;;;;;;;5.59;96.07;101724.00;10412349;28;20060;-77
2023/12/18 14:03:58;;;;;;;35.65;17.98;;;;;;;5.47;98.14;101739.56;10415561;28;20229;-79
2023/12/18 14:09:03;;;;;;;37.67;18.17;;;;;;;5.32;97.89;101731.25;10425123;28;20443;-82
2023/12/18 14:14:06;;;;;;;23.52;14.30;;;;;;;5.33;98.84;101707.25;10437703;28;20080;-78
2023/12/18 14:19:10;;;;;;;30.20;15.43;;;;;;;5.14;99.26;101714.19;10424553;28;20578;-77
2023/12/18 14:24:13;;;;;;;32.47;15.55;;;;;;;5.09;99.65;101730.34;10432099;28;20044;-80
2023/12/18 14:29:18;;;;;;;36.58;18.95;;;;;;;5.26;98.32;101716.38;10415944;28;20041;-80
2023/12/18 14:34:22;;;;;;;31.27;16.63;;;;;;;4.97;100.00;101722.78;10418363;28;20045;-79
2023/12/18 14:39:25;;;;;;;30.80;14.27;;;;;;;4.84;100.00;101712.53;10441435;28;20049;-80
2023/12/18 14:44:30;;;;;;;30.08;16.02;;;;;;;5.23;97.67;101701.38;10428426;28;21177;-79
2023/12/18 14:49:34;;;;;;;36.70;18.20;;;;;;;4.92;99.48;101693.63;10413708;28;20140;-79
2023/12/18 14:54:37;;;;;;;28.75;14.32;;;;;;;4.90;99.65;101698.13;10423989;28;20071;-79
2023/12/18 14:59:40;;;;;;;37.03;19.17;;;;;;;5.08;98.86;101698.44;10439645;28;20044;-80
2023/12/18 15:04:44;;;;;;;28.63;13.82;;;;;;;4.85;100.00;101705.41;10461194;28;20140;-80
2023/12/18 15:09:48;;;;;;;27.60;14.13;;;;;;;5.26;97.39;101703.91;10440144;28;20040;-79
2023/12/18 15:14:50;;;;;;;26.42;11.15;;;;;;;4.94;99.48;101691.78;10417362;28;21210;-81
2023/12/18 15:19:55;;;;;;;26.23;13.57;;;;;;;5.17;98.10;101693.63;10438981;28;20049;-80
2023/12/18 15:24:58;;;;;;;29.70;15.88;;;;;;;5.23;97.86;101685.38;10458997;28;20139;-78
2023/12/18 15:30:01;;;;;;;32.65;15.05;;;;;;;5.23;98.31;101687.19;10437437;28;20048;-78
2023/12/18 15:35:07;;;;;;;31.23;19.10;;;;;;;5.27;98.17;101692.34;10427793;28;20045;-80
2023/12/18 15:40:10;;;;;;;27.83;15.77;;;;;;;5.30;97.87;101687.84;10434680;28;20045;-79
2023/12/18 15:45:14;;;;;;;29.45;17.80;;;;;;;5.38;97.88;101669.75;10441490;28;20051;-79
2023/12/18 15:50:18;;;;;;;30.25;16.40;;;;;;;5.46;97.45;101663.19;10424689;28;20199;-81
2023/12/18 15:55:21;;;;;;;25.42;15.15;;;;;;;5.05;99.94;101663.00;10431064;28;20049;-80
2023/12/18 16:00:26;;;;;;;23.88;13.25;;;;;;;4.98;100.00;101631.28;10438254;28;20051;-79
2023/12/18 16:05:34;;;;;;;22.83;12.18;;;;;;;5.33;97.50;101634.44;10427392;28;20056;-80
2023/12/18 16:10:37;;;;;;;20.17;11.30;;;;;;;5.05;100.00;101619.50;10423956;28;20048;-80
2023/12/18 16:15:40;;;;;;;21.63;12.55;;;;;;;5.15;100.00;101633.34;10439778;28;20048;-79
2023/12/18 16:20:45;;;;;;;25.02;13.52;;;;;;;4.94;100.00;101635.88;10443958;28;20045;-77
2023/12/18 16:25:48;;;;;;;22.65;14.45;;;;;;;5.41;97.87;101616.34;10433530;28;20057;-81
2023/12/18 16:30:51;;;;;;;24.65;14.35;;;;;;;5.23;98.69;101613.44;10435700;28;20619;-81
2023/12/18 16:36:01;;;;;;;21.38;11.60;;;;;;;5.04;100.00;101623.94;10425075;28;20105;-79
2023/12/18 16:41:06;;;;;;;22.88;11.10;;;;;;;5.27;98.16;101588.44;10437889;28;20087;-79
2023/12/18 16:46:09;;;;;;;21.88;11.73;;;;;;;5.46;97.01;101599.22;10445312;28;20171;-80
2023/12/18 16:51:13;;;;;;;22.83;12.05;;;;;;;5.08;100.00;101623.84;10434039;28;20072;-81
2023/12/18 16:56:16;;;;;;;19.67;10.68;;;;;;;4.97;100.00;101610.91;10423120;28;20178;-79
2023/12/18 17:01:21;;;;;;;25.15;15.50;;;;;;;5.13;99.97;101577.47;10434324;28;20045;-79
2023/12/18 17:06:27;;;;;;;17.50;9.15;;;;;;;5.20;98.22;101575.41;10448085;28;20663;-79
2023/12/18 17:11:30;;;;;;;26.27;14.15;;;;;;;5.45;97.62;101562.84;10426727;28;20053;-80
2023/12/18 17:16:34;;;;;;;26.25;14.50;;;;;;;5.28;98.96;101565.31;10470003;28;20060;-79
2023/12/18 17:21:38;;;;;;;31.73;13.73;;;;;;;5.78;94.80;101538.38;10419907;28;20118;-80
2023/12/18 17:26:43;;;;;;;23.83;13.38;;;;;;;5.22;99.49;101560.25;10415028;28;20078;-79
2023/12/18 17:31:45;;;;;;;28.55;15.25;;;;;;;5.57;97.64;101552.59;10421737;28;20076;-81
2023/12/18 17:36:50;;;;;;;25.13;14.40;;;;;;;5.72;94.88;101552.81;10403203;28;20049;-78
2023/12/18 17:41:54;;;;;;;24.48;13.98;;;;;;;5.78;94.98;101575.69;10416886;28;20056;-79
2023/12/18 17:46:57;;;;;;;18.80;11.38;;;;;;;5.42;97.56;101592.28;10434676;28;20048;-80
2023/12/18 17:52:02;;;;;;;25.13;13.82;;;;;;;5.60;98.06;101560.50;10427552;28;20052;-79
2023/12/18 17:57:05;;;;;;;24.52;12.05;;;;;;;5.40;97.95;101546.19;10433607;28;20052;-79
2023/12/18 18:02:09;;;;;;;25.60;14.52;;;;;;;5.53;97.71;101529.69;10439666;28;20053;-78
2023/12/18 18:07:14;;;;;;;21.77;13.40;;;;;;;5.46;97.86;101556.59;10424902;28;20041;-80
2023/12/18 18:12:17;;;;;;;19.60;11.02;;;;;;;5.05;100.00;101606.19;10426441;28;20053;-78
2023/12/18 18:17:20;;;;;;;23.15;13.88;;;;;;;5.59;97.65;101578.25;10435973;28;20036;-78
2023/12/18 18:22:25;;;;;;;26.48;13.70;;;;;;;5.55;98.00;101570.47;10448795;28;20069;-80
2023/12/18 18:27:28;;;;;;;29.48;15.25;;;;;;;5.54;98.25;101556.28;10436536;28;20112;-80
2023/12/18 18:32:31;;;;;;;21.58;11.07;;;;;;;5.37;98.78;101521.44;10436734;28;20670;-80
2023/12/18 18:37:36;;;;;;;17.73;10.05;;;;;;;5.02;100.00;101537.94;10430284;28;21196;-79
2023/12/18 18:42:39;;;;;;;20.67;10.85;;;;;;;5.46;98.58;101535.28;10431165;28;20045;-80
2023/12/18 18:47:43;;;;;;;25.08;13.65;;;;;;;5.30;98.90;101550.16;10427722;28;20067;-79
2023/12/18 18:52:49;;;;;;;23.92;13.50;;;;;;;5.37;98.16;101548.94;10429204;28;20433;-78
2023/12/18 18:57:52;;;;;;;17.95;10.95;;;;;;;5.10;98.03;101552.72;10419974;28;20696;-80
2023/12/18 19:02:58;;;;;;;19.83;12.52;;;;;;;5.56;94.67;101534.88;10441031;28;20056;-81
2023/12/18 19:08:03;;;;;;;19.73;11.23;;;;;;;5.41;94.13;101505.28;10429291;28;20063;-80
2023/12/18 19:13:06;;;;;;;21.40;11.27;;;;;;;5.18;92.97;101503.53;10428098;28;20053;-80
2023/12/18 19:18:09;;;;;;;17.27;11.18;;;;;;;5.30;91.66;101502.19;10436284;28;20048;-78
2023/12/18 19:23:14;;;;;;;17.25;11.80;;;;;;;5.14;91.67;101512.59;10437519;28;21200;-78
2023/12/18 19:28:17;;;;;;;22.02;12.23;;;;;;;5.15;91.39;101516.13;10461613;28;20037;-79
2023/12/18 19:33:20;;;;;;;19.35;12.88;;;;;;;4.93;92.96;101503.63;10445592;28;20563;-79
2023/12/18 19:38:25;;;;;;;19.48;10.35;;;;;;;4.93;92.96;101492.97;10431515;28;20065;-79
2023/12/18 19:43:29;;;;;;;22.42;13.55;;;;;;;4.70;95.64;101493.88;10431262;28;20178;-80
2023/12/18 19:48:33;;;;;;;15.18;9.82;;;;;;;4.76;93.69;101492.78;10421712;28;20090;-79
2023/12/18 19:53:38;;;;;;;23.98;15.27;;;;;;;4.79;94.18;101498.84;10435557;28;20041;-80
2023/12/18 19:58:41;;;;;;;16.67;11.15;;;;;;;4.66;94.10;101478.94;10425191;28;20045;-80
2023/12/18 20:03:44;;;;;;;26.08;14.88;;;;;;;4.80;93.84;101483.72;10439618;28;20608;-80
2023/12/18 20:08:49;;;;;;;23.27;12.70;;;;;;;4.42;96.71;101462.16;10427918;28;21169;-80
2023/12/18 20:13:52;;;;;;;18.13;11.30;;;;;;;4.55;96.01;101439.47;10423616;28;20053;-80
2023/12/18 20:18:55;;;;;;;19.95;10.82;;;;;;;4.49;96.12;101445.00;10435054;28;20143;-78
2023/12/18 20:24:00;;;;;;;23.13;12.15;;;;;;;4.34;96.09;101483.72;10403469;28;20048;-78
2023/12/18 20:29:03;;;;;;;18.05;11.10;;;;;;;4.36;96.21;101462.38;10428071;28;20045;-78
2023/12/18 20:34:06;;;;;;;24.48;13.50;;;;;;;4.26;96.50;101456.53;10444174;28;20048;-79
2023/12/18 20:39:14;;;;;;;21.35;12.63;;;;;;;4.22;95.31;101467.34;10424316;28;20055;-78
2023/12/18 20:44:18;;;;;;;24.00;12.70;;;;;;;4.09;95.46;101441.22;10421990;28;20791;-80
2023/12/18 20:49:21;;;;;;;23.38;13.15;;;;;;;4.62;91.38;101451.59;10439573;28;20047;-79
2023/12/18 20:54:25;;;;;;;20.27;11.65;;;;;;;4.46;91.47;101447.78;10414622;28;20058;-79
2023/12/18 20:59:28;;;;;;;21.27;12.52;;;;;;;4.41;91.25;101479.03;10429268;28;20055;-78
2023/12/18 21:04:32;;;;;;;18.17;10.27;;;;;;;4.31;90.47;101472.34;10430518;28;20048;-79
2023/12/18 21:09:37;;;;;;;14.95;8.38;;;;;;;4.31;89.94;101438.63;10412020;28;20056;-79
2023/12/18 21:14:40;;;;;;;15.90;8.20;;;;;;;4.48;88.41;101442.44;10424944;28;20113;-79
2023/12/18 21:19:43;;;;;;;20.33;12.07;;;;;;;4.48;88.60;101427.31;10420299;28;20133;-82
2023/12/18 21:24:47;;;;;;;12.45;7.07;;;;;;;4.23;89.29;101419.44;10430018;28;20060;-79
2023/12/18 21:29:50;;;;;;;17.73;10.27;;;;;;;4.22;90.50;101430.09;10424316;28;20052;-79
2023/12/18 21:34:54;;;;;;;20.98;10.45;;;;;;;4.30;90.55;101449.31;10438479;28;20443;-78
2023/12/18 21:39:58;;;;;;;25.70;13.98;;;;;;;4.16;91.54;101474.63;10452659;28;20049;-78
2023/12/18 21:45:01;;;;;;;17.80;11.20;;;;;;;4.21;92.42;101441.69;10427639;28;20060;-80
2023/12/18 21:50:05;;;;;;;23.80;14.15;;;;;;;4.26;94.07;101447.72;10438832;28;20040;-80
2023/12/18 21:55:11;;;;;;;17.65;10.77;;;;;;;4.58;91.09;101434.03;10429105;28;20048;-77
2023/12/18 22:00:15;;;;;;;19.23;11.82;;;;;;;4.25;93.94;101425.56;10412045;28;20052;-77
2023/12/18 22:05:18;;;;;;;22.33;12.82;;;;;;;4.43;94.03;101433.75;10443699;28;20579;-77
2023/12/18 22:10:23;;;;;;;25.23;13.07;;;;;;;4.44;94.97;101416.84;10427068;28;20127;-79
2023/12/18 22:15:25;;;;;;;25.88;14.48;;;;;;;4.47;94.96;101377.72;10433091;28;20049;-81
2023/12/18 22:20:29;;;;;;;24.60;13.48;;;;;;;4.56;94.91;101373.81;10443113;28;20045;-80
2023/12/18 22:25:33;;;;;;;27.73;14.57;;;;;;;4.75;94.13;101400.56;10427677;28;20051;-79
2023/12/18 22:30:39;;;;;;;26.95;12.00;;;;;;;4.43;97.08;101386.72;10431418;28;20053;-79
2023/12/18 22:35:42;;;;;;;19.88;11.10;;;;;;;4.31;100.00;101372.13;10435985;28;20151;-80
2023/12/18 22:40:46;;;;;;;24.23;15.18;;;;;;;4.58;99.35;101382.56;10445488;28;20052;-80
2023/12/18 22:45:49;;;;;;;35.17;18.10;;;;;;;4.62;100.00;101354.94;10454065;28;20048;-80
2023/12/18 22:50:54;;;;;;;19.05;10.02;;;;;;;4.57;99.67;101356.91;10442937;28;20076;-80
2023/12/18 22:55:59;;;;;;;34.90;17.27;;;;;;;4.77;100.00;101354.31;10412662;28;20053;-79
2023/12/18 23:01:02;;;;;;;30.15;15.32;;;;;;;4.37;100.00;101355.91;10423381;28;20056;-81